Malone, Texas
Current Conditions -  °F | °C
As of 7:15 AM on Friday 24 Oct 2014 (Local Time) from KINJ Reporting Station
Clear Clear  
Wind Chill: 62°   Ceiling: Unl
Heat Index: 62°   Visibility: 10mi
Dew Point: 52°   Wind: 7mph
Humidity: 69%   Direction: 150°SSE
Pressure: 30.15"   Gusts: NA
Location:  31.92°N, 96.89°W
Report Text: KINJ 241215Z AUTO 15006KT 10SM CLR 17/11 A3015 RMK AO2 T01660110
Loading
Personal Weather Stations






























Interactive Weather Map
Tropical Storm Tracking
New forecast layout! Learn more

10-Day Weather Forecast

Advertisements
Track Severe Weather on mobile